AAL704 KCLT-EDDF
Flight info
| Callsign | AAL704 |
|---|---|
| Flight time | N/A |
| Altitude | 37000 |
| Route | BARMY5 RDU DCT NOWAE Q87 GEARS DCT BBOBO Q22 FOXWD DCT EBONY/N0487F390 N505B ALLRY/M085F400 DCT 51N050W 53N040W 54N030W 54N020W DCT DOGAL DCT BEXET/N0499F410 DCT LIFFY UL975 WAL M16 DOLAS DCT NAVPI DCT NOLRU DCT DIXAT DIXAT1A |
| Aircraft | B789/H-SDE1E2E3FGHIJ2J3J4J5M1RWXY/LB1D1 |
Departure
| Time | N/A |
|---|---|
| Airport | Charlotte Douglas International Airport (KCLT) |
Arrival
| Time | 2026-04-15 12:14 |
|---|---|
| Airport | Frankfurt Main Airport (EDDF) |
| Time | Latitude | Longitude | Altitude | Speed | Heading |
|---|---|---|---|---|---|
| 2026-04-15 11:38 | 51.51547 | 6.17062 | 32827 ft | 515 kts | 119° |
| 2026-04-15 11:38 | 51.49915 | 6.22210 | 32518 ft | 516 kts | 113° |
| 2026-04-15 11:39 | 51.48572 | 6.27628 | 32229 ft | 518 kts | 111° |
| 2026-04-15 11:39 | 51.47281 | 6.32959 | 32187 ft | 503 kts | 111° |
| 2026-04-15 11:39 | 51.46032 | 6.38090 | 32186 ft | 485 kts | 112° |
| 2026-04-15 11:39 | 51.44810 | 6.43033 | 32146 ft | 468 kts | 112° |
| 2026-04-15 11:40 | 51.43628 | 6.47801 | 32115 ft | 453 kts | 112° |
| 2026-04-15 11:40 | 51.42501 | 6.52370 | 32063 ft | 439 kts | 112° |
| 2026-04-15 11:40 | 51.41398 | 6.56839 | 32014 ft | 425 kts | 112° |
| 2026-04-15 11:40 | 51.40317 | 6.61195 | 31956 ft | 413 kts | 112° |
| 2026-04-15 11:41 | 51.39269 | 6.65403 | 31845 ft | 402 kts | 112° |
| 2026-04-15 11:41 | 51.38232 | 6.69564 | 31376 ft | 402 kts | 112° |
| 2026-04-15 11:41 | 51.37198 | 6.73713 | 30915 ft | 402 kts | 111° |
| 2026-04-15 11:41 | 51.36156 | 6.77886 | 30436 ft | 403 kts | 111° |
| 2026-04-15 11:42 | 51.35119 | 6.82023 | 29934 ft | 403 kts | 112° |
| 2026-04-15 11:42 | 51.34071 | 6.86201 | 29382 ft | 403 kts | 112° |
| 2026-04-15 11:42 | 51.33025 | 6.90362 | 28834 ft | 403 kts | 112° |
| 2026-04-15 11:42 | 51.31977 | 6.94526 | 28281 ft | 403 kts | 112° |
| 2026-04-15 11:43 | 51.30926 | 6.98689 | 27711 ft | 404 kts | 112° |
| 2026-04-15 11:43 | 51.29875 | 7.02847 | 27141 ft | 404 kts | 112° |
| 2026-04-15 11:43 | 51.28820 | 7.07015 | 26562 ft | 404 kts | 112° |
| 2026-04-15 11:43 | 51.27719 | 7.11136 | 25997 ft | 404 kts | 120° |
| 2026-04-15 11:44 | 51.26030 | 7.14757 | 25385 ft | 401 kts | 138° |
| 2026-04-15 11:44 | 51.23830 | 7.17346 | 25244 ft | 387 kts | 153° |
| 2026-04-15 11:44 | 51.21437 | 7.19358 | 25229 ft | 390 kts | 155° |
| 2026-04-15 11:44 | 51.18967 | 7.21289 | 25232 ft | 400 kts | 156° |
| 2026-04-15 11:45 | 51.16450 | 7.23228 | 25230 ft | 401 kts | 156° |
| 2026-04-15 11:45 | 51.13953 | 7.25211 | 25231 ft | 402 kts | 155° |
| 2026-04-15 11:45 | 51.11456 | 7.27237 | 25226 ft | 403 kts | 153° |
| 2026-04-15 11:45 | 51.08989 | 7.29351 | 25231 ft | 402 kts | 155° |
| 2026-04-15 11:46 | 51.06476 | 7.31326 | 25228 ft | 402 kts | 156° |
| 2026-04-15 11:46 | 51.03981 | 7.33327 | 25223 ft | 402 kts | 154° |
| 2026-04-15 11:46 | 51.01513 | 7.35399 | 25228 ft | 402 kts | 154° |
| 2026-04-15 11:46 | 50.99032 | 7.37474 | 25223 ft | 401 kts | 154° |
| 2026-04-15 11:47 | 50.96554 | 7.39500 | 25223 ft | 401 kts | 155° |
| 2026-04-15 11:47 | 50.94078 | 7.41515 | 25223 ft | 401 kts | 155° |
| 2026-04-15 11:47 | 50.91599 | 7.43551 | 25226 ft | 402 kts | 154° |
| 2026-04-15 11:47 | 50.89110 | 7.45599 | 25227 ft | 402 kts | 155° |
| 2026-04-15 11:48 | 50.86625 | 7.47633 | 25228 ft | 402 kts | 155° |
| 2026-04-15 11:48 | 50.84120 | 7.49676 | 25227 ft | 402 kts | 155° |
| 2026-04-15 11:48 | 50.81618 | 7.51718 | 25237 ft | 402 kts | 155° |
| 2026-04-15 11:48 | 50.79139 | 7.53741 | 25227 ft | 398 kts | 154° |
| 2026-04-15 11:49 | 50.76675 | 7.55748 | 25237 ft | 403 kts | 154° |
| 2026-04-15 11:49 | 50.74176 | 7.57778 | 25241 ft | 403 kts | 154° |
| 2026-04-15 11:49 | 50.71690 | 7.59799 | 25240 ft | 402 kts | 154° |
| 2026-04-15 11:49 | 50.69203 | 7.61817 | 25242 ft | 402 kts | 154° |
| 2026-04-15 11:50 | 50.66716 | 7.63832 | 25242 ft | 402 kts | 154° |
| 2026-04-15 11:50 | 50.64222 | 7.65850 | 25040 ft | 406 kts | 154° |
| 2026-04-15 11:50 | 50.61696 | 7.67891 | 24572 ft | 407 kts | 154° |
| 2026-04-15 11:50 | 50.59215 | 7.69897 | 24048 ft | 395 kts | 154° |
| 2026-04-15 11:51 | 50.57573 | 7.71223 | 23603 ft | 389 kts | 154° |
| 2026-04-15 11:51 | 50.54436 | 7.73747 | 22666 ft | 380 kts | 154° |
| 2026-04-15 11:51 | 50.52843 | 7.75027 | 22202 ft | 376 kts | 154° |
| 2026-04-15 11:51 | 50.50553 | 7.76869 | 21494 ft | 366 kts | 154° |
| 2026-04-15 11:52 | 50.48293 | 7.78683 | 20815 ft | 365 kts | 154° |
| 2026-04-15 11:52 | 50.46036 | 7.80491 | 20181 ft | 363 kts | 154° |
| 2026-04-15 11:52 | 50.43804 | 7.82308 | 19544 ft | 359 kts | 151° |
| 2026-04-15 11:52 | 50.41804 | 7.84641 | 18939 ft | 358 kts | 143° |
| 2026-04-15 11:53 | 50.39859 | 7.87059 | 18320 ft | 356 kts | 143° |
| 2026-04-15 11:53 | 50.37919 | 7.89458 | 17639 ft | 353 kts | 143° |
| 2026-04-15 11:53 | 50.36011 | 7.91822 | 16958 ft | 349 kts | 143° |
| 2026-04-15 11:53 | 50.34119 | 7.94169 | 16301 ft | 345 kts | 143° |
| 2026-04-15 11:54 | 50.32248 | 7.96483 | 15657 ft | 341 kts | 143° |
| 2026-04-15 11:54 | 50.30402 | 7.98764 | 14794 ft | 332 kts | 143° |
| 2026-04-15 11:54 | 50.28546 | 8.01051 | 12669 ft | 350 kts | 143° |
| 2026-04-15 11:54 | 50.26821 | 8.03784 | 10852 ft | 358 kts | 124° |
| 2026-04-15 11:55 | 50.25832 | 8.07308 | 10251 ft | 352 kts | 106° |
| 2026-04-15 11:55 | 50.25173 | 8.11131 | 10274 ft | 374 kts | 106° |
| 2026-04-15 11:55 | 50.24523 | 8.15053 | 10272 ft | 372 kts | 105° |
| 2026-04-15 11:55 | 50.23907 | 8.19002 | 10267 ft | 374 kts | 104° |
| 2026-04-15 11:56 | 50.23282 | 8.22939 | 10262 ft | 374 kts | 105° |
| 2026-04-15 11:56 | 50.22631 | 8.26906 | 10259 ft | 374 kts | 105° |
| 2026-04-15 11:56 | 50.21991 | 8.30807 | 10260 ft | 373 kts | 105° |
| 2026-04-15 11:56 | 50.21314 | 8.34708 | 10259 ft | 371 kts | 110° |
| 2026-04-15 11:57 | 50.20011 | 8.38151 | 10250 ft | 370 kts | 132° |
| 2026-04-15 11:57 | 50.15545 | 8.41788 | 10247 ft | 365 kts | 174° |
| 2026-04-15 11:57 | 50.13054 | 8.41478 | 10253 ft | 367 kts | 195° |
| 2026-04-15 11:58 | 50.10775 | 8.39767 | 10250 ft | 364 kts | 216° |
| 2026-04-15 11:58 | 50.09084 | 8.36964 | 10211 ft | 342 kts | 238° |
| 2026-04-15 11:58 | 50.08290 | 8.33755 | 10098 ft | 302 kts | 256° |
| 2026-04-15 11:58 | 50.07856 | 8.30635 | 9956 ft | 291 kts | 256° |
| 2026-04-15 11:59 | 50.07330 | 8.27607 | 9700 ft | 287 kts | 250° |
| 2026-04-15 11:59 | 50.06610 | 8.24734 | 9406 ft | 284 kts | 246° |
| 2026-04-15 11:59 | 50.05861 | 8.21920 | 9127 ft | 279 kts | 247° |
| 2026-04-15 11:59 | 50.05161 | 8.19067 | 8843 ft | 280 kts | 249° |
| 2026-04-15 12:00 | 50.04495 | 8.16260 | 8649 ft | 273 kts | 249° |
| 2026-04-15 12:00 | 50.03819 | 8.13477 | 8508 ft | 269 kts | 248° |
| 2026-04-15 12:00 | 50.03174 | 8.10854 | 8379 ft | 254 kts | 248° |
| 2026-04-15 12:00 | 50.02542 | 8.08278 | 7844 ft | 251 kts | 248° |
| 2026-04-15 12:01 | 50.01933 | 8.05769 | 7323 ft | 239 kts | 248° |
| 2026-04-15 12:01 | 50.01356 | 8.03402 | 6855 ft | 229 kts | 248° |
| 2026-04-15 12:01 | 50.00790 | 8.01096 | 6568 ft | 230 kts | 248° |
| 2026-04-15 12:01 | 50.00213 | 7.98735 | 6356 ft | 237 kts | 247° |
| 2026-04-15 12:02 | 49.99621 | 7.96319 | 6138 ft | 236 kts | 248° |
| 2026-04-15 12:02 | 49.99036 | 7.93937 | 5933 ft | 237 kts | 248° |
| 2026-04-15 12:02 | 49.98452 | 7.91556 | 5737 ft | 236 kts | 247° |
| 2026-04-15 12:02 | 49.97858 | 7.89134 | 5506 ft | 236 kts | 247° |
| 2026-04-15 12:03 | 49.97209 | 7.86499 | 5276 ft | 235 kts | 246° |
| 2026-04-15 12:03 | 49.96662 | 7.84286 | 5089 ft | 236 kts | 247° |
| 2026-04-15 12:03 | 49.96075 | 7.81907 | 4984 ft | 233 kts | 247° |
| 2026-04-15 12:03 | 49.95489 | 7.79525 | 4993 ft | 238 kts | 247° |
| 2026-04-15 12:04 | 49.94679 | 7.77362 | 4946 ft | 231 kts | 217° |
| 2026-04-15 12:04 | 49.93207 | 7.76535 | 4988 ft | 230 kts | 178° |
| 2026-04-15 12:04 | 49.91727 | 7.77400 | 4889 ft | 228 kts | 137° |
| 2026-04-15 12:04 | 49.90945 | 7.79505 | 4787 ft | 227 kts | 108° |
| 2026-04-15 12:05 | 49.90547 | 7.81879 | 4718 ft | 228 kts | 104° |
| 2026-04-15 12:05 | 49.90205 | 7.84287 | 4667 ft | 227 kts | 103° |
| 2026-04-15 12:05 | 49.89875 | 7.86672 | 4580 ft | 226 kts | 103° |
| 2026-04-15 12:05 | 49.89713 | 7.89119 | 4448 ft | 227 kts | 89° |
| 2026-04-15 12:06 | 49.89859 | 7.91544 | 4366 ft | 230 kts | 81° |
| 2026-04-15 12:06 | 49.90318 | 7.93897 | 4280 ft | 228 kts | 71° |
| 2026-04-15 12:06 | 49.90883 | 7.96256 | 4181 ft | 227 kts | 71° |
| 2026-04-15 12:06 | 49.91435 | 7.98565 | 4069 ft | 228 kts | 70° |
| 2026-04-15 12:07 | 49.91987 | 8.00865 | 3979 ft | 226 kts | 71° |
| 2026-04-15 12:07 | 49.92533 | 8.03140 | 4005 ft | 225 kts | 71° |
| 2026-04-15 12:07 | 49.93068 | 8.05382 | 3983 ft | 228 kts | 71° |
| 2026-04-15 12:07 | 49.93544 | 8.07356 | 4004 ft | 228 kts | 70° |
| 2026-04-15 12:08 | 49.94096 | 8.09656 | 4001 ft | 227 kts | 71° |
| 2026-04-15 12:08 | 49.94647 | 8.11956 | 3995 ft | 228 kts | 71° |
| 2026-04-15 12:08 | 49.95167 | 8.14124 | 3986 ft | 227 kts | 71° |
| 2026-04-15 12:08 | 49.95749 | 8.16558 | 3986 ft | 226 kts | 71° |
| 2026-04-15 12:09 | 49.96291 | 8.18822 | 3989 ft | 221 kts | 71° |
| 2026-04-15 12:09 | 49.96807 | 8.20984 | 3982 ft | 209 kts | 72° |
| 2026-04-15 12:09 | 49.97315 | 8.23099 | 3924 ft | 213 kts | 70° |
| 2026-04-15 12:09 | 49.97828 | 8.25251 | 3646 ft | 211 kts | 70° |
| 2026-04-15 12:10 | 49.98354 | 8.27412 | 3341 ft | 212 kts | 70° |
| 2026-04-15 12:10 | 49.98864 | 8.29537 | 3101 ft | 209 kts | 70° |
| 2026-04-15 12:10 | 49.99374 | 8.31667 | 2800 ft | 210 kts | 70° |
| 2026-04-15 12:10 | 49.99873 | 8.33750 | 2571 ft | 201 kts | 70° |
| 2026-04-15 12:11 | 50.00341 | 8.35690 | 2268 ft | 180 kts | 70° |
| 2026-04-15 12:11 | 50.00756 | 8.37435 | 2015 ft | 163 kts | 70° |
| 2026-04-15 12:11 | 50.01136 | 8.39011 | 1793 ft | 151 kts | 70° |
| 2026-04-15 12:11 | 50.01486 | 8.40472 | 1581 ft | 142 kts | 70° |
| 2026-04-15 12:12 | 50.01841 | 8.41937 | 1374 ft | 143 kts | 70° |
| 2026-04-15 12:12 | 50.02191 | 8.43406 | 1185 ft | 146 kts | 70° |
| 2026-04-15 12:12 | 50.02555 | 8.44934 | 983 ft | 156 kts | 69° |
| 2026-04-15 12:12 | 50.02938 | 8.46517 | 820 ft | 157 kts | 65° |
| 2026-04-15 12:13 | 50.03313 | 8.48089 | 712 ft | 156 kts | 67° |
| 2026-04-15 12:13 | 50.03693 | 8.49681 | 474 ft | 154 kts | 68° |
| 2026-04-15 12:13 | 50.04053 | 8.51145 | 356 ft | 121 kts | 68° |
| 2026-04-15 12:13 | 50.04254 | 8.51998 | 356 ft | 52 kts | 69° |
| 2026-04-15 12:14 | 50.04359 | 8.52439 | 361 ft | 48 kts | 69° |
| 2026-04-15 12:14 | 50.04387 | 8.52862 | 353 ft | 25 kts | 97° |
| 2026-04-15 12:14 | 50.04373 | 8.52995 | 358 ft | 13 kts | 101° |
| 2026-04-15 12:14 | 50.04363 | 8.53085 | 356 ft | 2 kts | 102° |
| 2026-04-15 12:15 | 50.04357 | 8.53136 | 358 ft | 11 kts | 100° |
| 2026-04-15 12:15 | 50.04361 | 8.53334 | 357 ft | 26 kts | 77° |
| 2026-04-15 12:15 | 50.04410 | 8.53673 | 358 ft | 39 kts | 85° |
| 2026-04-15 12:15 | 50.04419 | 8.53861 | 351 ft | 0 kts | 86° |
| 2026-04-15 12:16 | 50.04420 | 8.53893 | 351 ft | 11 kts | 84° |
| 2026-04-15 12:16 | 50.04429 | 8.54024 | 359 ft | 25 kts | 85° |
| 2026-04-15 12:16 | 50.04450 | 8.54459 | 354 ft | 26 kts | 97° |
| 2026-04-15 12:16 | 50.04374 | 8.54700 | 361 ft | 26 kts | 138° |
| 2026-04-15 12:17 | 50.04216 | 8.54826 | 359 ft | 24 kts | 160° |
| 2026-04-15 12:17 | 50.04122 | 8.54880 | 359 ft | 7 kts | 160° |
| 2026-04-15 12:17 | 50.04094 | 8.54896 | 358 ft | 0 kts | 159° |
| 2026-04-15 12:19 | 50.04074 | 8.54908 | 360 ft | 9 kts | 159° |
| 2026-04-15 12:19 | 50.04025 | 8.55006 | 359 ft | 12 kts | 95° |
| 2026-04-15 12:19 | 50.04039 | 8.55099 | 358 ft | 17 kts | 72° |
| 2026-04-15 12:19 | 50.04095 | 8.55336 | 355 ft | 31 kts | 69° |
| 2026-04-15 12:20 | 50.04186 | 8.55717 | 361 ft | 43 kts | 70° |
| 2026-04-15 12:20 | 50.04299 | 8.56189 | 360 ft | 46 kts | 70° |
| 2026-04-15 12:20 | 50.04407 | 8.56639 | 358 ft | 36 kts | 69° |
| 2026-04-15 12:20 | 50.04481 | 8.56956 | 356 ft | 31 kts | 70° |
| 2026-04-15 12:21 | 50.04558 | 8.57270 | 359 ft | 31 kts | 70° |
| 2026-04-15 12:21 | 50.04630 | 8.57580 | 358 ft | 30 kts | 70° |
| 2026-04-15 12:21 | 50.04701 | 8.57864 | 360 ft | 23 kts | 61° |
| 2026-04-15 12:21 | 50.04801 | 8.58051 | 359 ft | 23 kts | 65° |
| 2026-04-15 12:22 | 50.04849 | 8.58250 | 358 ft | 6 kts | 69° |
| 2026-04-15 12:22 | 50.04850 | 8.58252 | 357 ft | 1 kts | 69° |
| 2026-04-15 12:22 | 50.04855 | 8.58272 | 356 ft | 3 kts | 69° |
| 2026-04-15 12:22 | 50.04865 | 8.58315 | 361 ft | 5 kts | 69° |
| 2026-04-15 12:23 | 50.04891 | 8.58423 | 358 ft | 18 kts | 70° |
| 2026-04-15 12:23 | 50.04948 | 8.58662 | 359 ft | 24 kts | 70° |
| 2026-04-15 12:23 | 50.05003 | 8.58889 | 355 ft | 13 kts | 68° |
| 2026-04-15 12:23 | 50.05047 | 8.58991 | 357 ft | 0 kts | 27° |
| 2026-04-15 12:24 | 50.05068 | 8.58996 | 359 ft | 9 kts | 1° |
| 2026-04-15 12:24 | 50.05110 | 8.58979 | 358 ft | 3 kts | 342° |
| 2026-04-15 12:24 | 50.05118 | 8.58975 | 358 ft | 2 kts | 341° |
| 2026-04-15 12:24 | 50.05122 | 8.58973 | 356 ft | 0 kts | 341° |